sensor_id;sensor_type;location;lat;lon;timestamp;pressure;altitude;pressure_sealevel;temperature;humidity
25610;BME280;13479;49.044;8.716;2024-01-30T05:02:47;100367.94;;;1.90;83.94
25610;BME280;13479;49.044;8.716;2024-01-30T05:05:12;100339.47;;;1.77;84.39
25610;BME280;13479;49.044;8.716;2024-01-30T05:07:40;100329.25;;;1.68;84.74
25610;BME280;13479;49.044;8.716;2024-01-30T05:10:06;100327.72;;;1.61;85.10
25610;BME280;13479;49.044;8.716;2024-01-30T05:12:31;100331.25;;;1.60;85.53
25610;BME280;13479;49.044;8.716;2024-01-30T05:14:57;100344.06;;;1.69;86.27
25610;BME280;13479;49.044;8.716;2024-01-30T05:17:22;100352.66;;;1.74;86.35
25610;BME280;13479;49.044;8.716;2024-01-30T05:19:47;100379.88;;;1.68;85.86
25610;BME280;13479;49.044;8.716;2024-01-30T05:22:12;100382.25;;;1.78;86.06
25610;BME280;13479;49.044;8.716;2024-01-30T05:24:43;100397.34;;;1.68;85.79
25610;BME280;13479;49.044;8.716;2024-01-30T05:27:08;100395.88;;;1.58;85.57
25610;BME280;13479;49.044;8.716;2024-01-30T05:29:34;100392.59;;;1.81;85.95
25610;BME280;13479;49.044;8.716;2024-01-30T05:31:59;100402.28;;;1.79;85.84
25610;BME280;13479;49.044;8.716;2024-01-30T05:34:24;100422.66;;;1.99;85.53
25610;BME280;13479;49.044;8.716;2024-01-30T05:36:50;100439.72;;;1.82;84.98
25610;BME280;13479;49.044;8.716;2024-01-30T05:39:15;100431.88;;;1.82;85.29
25610;BME280;13479;49.044;8.716;2024-01-30T05:41:40;100421.47;;;1.79;85.45
25610;BME280;13479;49.044;8.716;2024-01-30T05:44:06;100411.97;;;1.75;85.99
25610;BME280;13479;49.044;8.716;2024-01-30T05:46:31;100402.41;;;1.74;86.03
25610;BME280;13479;49.044;8.716;2024-01-30T05:48:56;100402.75;;;1.62;86.32
25610;BME280;13479;49.044;8.716;2024-01-30T05:51:21;100394.09;;;1.58;86.42
25610;BME280;13479;49.044;8.716;2024-01-30T05:53:47;100408.66;;;2.00;85.76
25610;BME280;13479;49.044;8.716;2024-01-30T05:56:12;100465.69;;;2.22;85.09
25610;BME280;13479;49.044;8.716;2024-01-30T05:58:38;100502.44;;;2.20;85.07
25610;BME280;13479;49.044;8.716;2024-01-30T06:01:07;100524.72;;;2.35;83.99
25610;BME280;13479;49.044;8.716;2024-01-30T06:03:33;100531.41;;;2.15;84.28
25610;BME280;13479;49.044;8.716;2024-01-30T06:05:58;100519.13;;;2.18;84.29
25610;BME280;13479;49.044;8.716;2024-01-30T06:08:23;100503.22;;;1.91;84.55
25610;BME280;13479;49.044;8.716;2024-01-30T06:10:48;100489.59;;;2.11;84.64
25610;BME280;13479;49.044;8.716;2024-01-30T06:13:14;100481.78;;;1.76;85.04
25610;BME280;13479;49.044;8.716;2024-01-30T06:15:39;100449.03;;;1.93;85.51
25610;BME280;13479;49.044;8.716;2024-01-30T06:18:05;100443.38;;;2.08;84.92
25610;BME280;13479;49.044;8.716;2024-01-30T06:20:30;100474.47;;;2.21;84.35
25610;BME280;13479;49.044;8.716;2024-01-30T06:22:55;100489.25;;;2.23;84.26
25610;BME280;13479;49.044;8.716;2024-01-30T06:25:20;100504.25;;;2.18;84.49
25610;BME280;13479;49.044;8.716;2024-01-30T06:27:46;100471.97;;;2.16;84.78
25610;BME280;13479;49.044;8.716;2024-01-30T06:30:11;100430.88;;;2.18;85.56
25610;BME280;13479;49.044;8.716;2024-01-30T06:32:37;100431.47;;;2.28;84.94
25610;BME280;13479;49.044;8.716;2024-01-30T06:35:03;100457.56;;;2.31;84.85
25610;BME280;13479;49.044;8.716;2024-01-30T06:37:28;100460.59;;;2.17;85.26
25610;BME280;13479;49.044;8.716;2024-01-30T06:39:54;100436.97;;;2.19;85.38
25610;BME280;13479;49.044;8.716;2024-01-30T06:42:19;100441.91;;;2.29;84.73
25610;BME280;13479;49.044;8.716;2024-01-30T06:44:44;100471.50;;;2.33;85.02
25610;BME280;13479;49.044;8.716;2024-01-30T06:47:10;100465.00;;;2.15;84.71
25610;BME280;13479;49.044;8.716;2024-01-30T06:49:35;100442.09;;;1.92;85.72
25610;BME280;13479;49.044;8.716;2024-01-30T06:52:05;100408.09;;;1.90;86.19
25610;BME280;13479;49.044;8.716;2024-01-30T06:54:30;100387.56;;;2.06;86.08
25610;BME280;13479;49.044;8.716;2024-01-30T06:56:56;100393.38;;;2.16;85.91
25610;BME280;13479;49.044;8.716;2024-01-30T06:59:21;100418.88;;;2.09;86.31
25610;BME280;13479;49.044;8.716;2024-01-30T07:01:46;100425.69;;;2.16;86.30
25610;BME280;13479;49.044;8.716;2024-01-30T07:04:12;100441.56;;;2.10;86.27
25610;BME280;13479;49.044;8.716;2024-01-30T07:06:37;100443.63;;;2.30;85.65
25610;BME280;13479;49.044;8.716;2024-01-30T07:09:02;100492.59;;;2.28;85.22
25610;BME280;13479;49.044;8.716;2024-01-30T07:11:28;100494.56;;;2.20;85.20
25610;BME280;13479;49.044;8.716;2024-01-30T07:13:54;100483.22;;;2.20;85.36
25610;BME280;13479;49.044;8.716;2024-01-30T07:16:19;100481.41;;;2.22;85.61
25610;BME280;13479;49.044;8.716;2024-01-30T07:18:44;100489.47;;;2.15;85.30
25610;BME280;13479;49.044;8.716;2024-01-30T07:21:10;100486.72;;;2.20;85.41
25610;BME280;13479;49.044;8.716;2024-01-30T07:23:36;100481.34;;;2.25;84.85
25610;BME280;13479;49.044;8.716;2024-01-30T07:26:04;100499.91;;;2.49;85.02
25610;BME280;13479;49.044;8.716;2024-01-30T07:28:29;100588.72;;;2.91;82.62
25610;BME280;13479;49.044;8.716;2024-01-30T07:30:55;100631.31;;;2.99;80.64
25610;BME280;13479;49.044;8.716;2024-01-30T07:33:20;100619.84;;;3.03;80.21
25610;BME280;13479;49.044;8.716;2024-01-30T07:35:46;100603.97;;;3.08;79.49
25610;BME280;13479;49.044;8.716;2024-01-30T07:38:11;100577.16;;;2.98;80.17
25610;BME280;13479;49.044;8.716;2024-01-30T07:40:37;100522.44;;;2.86;80.78
25610;BME280;13479;49.044;8.716;2024-01-30T07:43:02;100469.75;;;2.92;81.67
25610;BME280;13479;49.044;8.716;2024-01-30T07:45:28;100436.41;;;2.96;81.54
25610;BME280;13479;49.044;8.716;2024-01-30T07:47:57;100413.13;;;3.13;82.10
25610;BME280;13479;49.044;8.716;2024-01-30T07:50:23;100437.84;;;3.58;81.54
25610;BME280;13479;49.044;8.716;2024-01-30T07:52:48;100534.31;;;3.80;79.89
25610;BME280;13479;49.044;8.716;2024-01-30T07:55:16;100565.16;;;4.00;78.92
25610;BME280;13479;49.044;8.716;2024-01-30T07:57:41;100579.50;;;4.16;78.97
25610;BME280;13479;49.044;8.716;2024-01-30T08:00:08;100573.81;;;4.54;78.13
25610;BME280;13479;49.044;8.716;2024-01-30T08:02:33;100663.44;;;4.99;74.87
25610;BME280;13479;49.044;8.716;2024-01-30T08:04:58;100679.56;;;5.37;72.91
25610;BME280;13479;49.044;8.716;2024-01-30T08:07:24;100581.50;;;5.52;72.26
25610;BME280;13479;49.044;8.716;2024-01-30T08:09:49;100504.47;;;5.68;72.40
25610;BME280;13479;49.044;8.716;2024-01-30T08:12:15;100470.94;;;6.13;72.80
25610;BME280;13479;49.044;8.716;2024-01-30T08:14:40;100508.56;;;6.56;69.16
25610;BME280;13479;49.044;8.716;2024-01-30T08:17:06;100428.59;;;6.73;67.92
25610;BME280;13479;49.044;8.716;2024-01-30T08:19:32;100406.09;;;6.84;66.97
25610;BME280;13479;49.044;8.716;2024-01-30T08:21:58;100384.63;;;6.91;65.54
25610;BME280;13479;49.044;8.716;2024-01-30T08:24:23;100361.72;;;6.92;65.11
25610;BME280;13479;49.044;8.716;2024-01-30T08:26:48;100340.75;;;6.89;65.18
25610;BME280;13479;49.044;8.716;2024-01-30T08:29:13;100324.75;;;6.92;66.23
25610;BME280;13479;49.044;8.716;2024-01-30T08:31:39;100319.09;;;7.17;66.57
25610;BME280;13479;49.044;8.716;2024-01-30T08:34:04;100299.94;;;7.63;66.89
25610;BME280;13479;49.044;8.716;2024-01-30T08:36:29;100359.94;;;9.07;63.97
25610;BME280;13479;49.044;8.716;2024-01-30T08:38:55;100350.41;;;9.49;62.60
25610;BME280;13479;49.044;8.716;2024-01-30T08:41:20;100370.88;;;9.76;60.52
25610;BME280;13479;49.044;8.716;2024-01-30T08:43:45;100373.25;;;10.93;60.43
25610;BME280;13479;49.044;8.716;2024-01-30T08:46:11;100419.38;;;11.99;57.11
25610;BME280;13479;49.044;8.716;2024-01-30T08:48:36;100467.03;;;12.54;55.56
25610;BME280;13479;49.044;8.716;2024-01-30T08:51:02;100504.78;;;12.97;50.99
25610;BME280;13479;49.044;8.716;2024-01-30T08:53:27;100526.25;;;13.20;48.19
25610;BME280;13479;49.044;8.716;2024-01-30T08:55:52;100528.78;;;13.22;46.89
25610;BME280;13479;49.044;8.716;2024-01-30T08:58:17;100526.66;;;13.14;45.24
25610;BME280;13479;49.044;8.716;2024-01-30T09:00:44;100536.28;;;12.66;45.10
25610;BME280;13479;49.044;8.716;2024-01-30T09:03:09;100523.28;;;12.23;45.92
25610;BME280;13479;49.044;8.716;2024-01-30T09:05:34;100521.34;;;11.99;46.42
25610;BME280;13479;49.044;8.716;2024-01-30T09:08:00;100496.97;;;11.52;47.46
25610;BME280;13479;49.044;8.716;2024-01-30T09:10:25;100472.06;;;11.40;47.95
25610;BME280;13479;49.044;8.716;2024-01-30T09:12:50;100459.13;;;11.21;48.74
25610;BME280;13479;49.044;8.716;2024-01-30T09:15:16;100436.56;;;10.87;50.01
25610;BME280;13479;49.044;8.716;2024-01-30T09:17:41;100427.13;;;10.68;50.71
25610;BME280;13479;49.044;8.716;2024-01-30T09:20:07;100406.69;;;10.27;51.68
25610;BME280;13479;49.044;8.716;2024-01-30T09:22:34;100402.06;;;10.01;52.39
25610;BME280;13479;49.044;8.716;2024-01-30T09:24:59;100403.44;;;10.22;52.21
25610;BME280;13479;49.044;8.716;2024-01-30T09:27:24;100409.81;;;10.33;51.67
25610;BME280;13479;49.044;8.716;2024-01-30T09:29:50;100417.97;;;10.30;51.52
25610;BME280;13479;49.044;8.716;2024-01-30T09:32:15;100409.16;;;10.15;51.94
25610;BME280;13479;49.044;8.716;2024-01-30T09:34:41;100409.53;;;10.09;52.39
25610;BME280;13479;49.044;8.716;2024-01-30T09:37:07;100409.75;;;10.06;52.36
25610;BME280;13479;49.044;8.716;2024-01-30T09:39:32;100452.19;;;10.06;51.51
25610;BME280;13479;49.044;8.716;2024-01-30T09:42:11;100425.34;;;9.67;52.51
25610;BME280;13479;49.044;8.716;2024-01-30T09:44:43;100412.50;;;9.45;53.67
25610;BME280;13479;49.044;8.716;2024-01-30T09:47:09;100407.34;;;9.27;53.97
25610;BME280;13479;49.044;8.716;2024-01-30T09:49:35;100403.56;;;9.32;54.69
25610;BME280;13479;49.044;8.716;2024-01-30T09:52:02;100405.88;;;9.52;54.57
25610;BME280;13479;49.044;8.716;2024-01-30T09:54:30;100410.81;;;9.58;54.42
25610;BME280;13479;49.044;8.716;2024-01-30T09:56:56;100431.53;;;9.52;53.94
25610;BME280;13479;49.044;8.716;2024-01-30T09:59:21;100428.13;;;9.50;54.04
25610;BME280;13479;49.044;8.716;2024-01-30T10:01:47;100429.34;;;9.44;54.31
25610;BME280;13479;49.044;8.716;2024-01-30T10:04:12;100426.47;;;9.33;54.65
25610;BME280;13479;49.044;8.716;2024-01-30T10:06:38;100418.44;;;9.34;55.37
25610;BME280;13479;49.044;8.716;2024-01-30T10:09:04;100417.72;;;9.61;54.76
25610;BME280;13479;49.044;8.716;2024-01-30T10:11:30;100426.91;;;9.55;55.00
25610;BME280;13479;49.044;8.716;2024-01-30T10:13:55;100413.47;;;9.58;55.17
25610;BME280;13479;49.044;8.716;2024-01-30T10:16:20;100409.53;;;9.80;55.07
25610;BME280;13479;49.044;8.716;2024-01-30T10:18:46;100422.22;;;9.89;55.50
25610;BME280;13479;49.044;8.716;2024-01-30T10:21:11;100432.38;;;9.97;55.29
25610;BME280;13479;49.044;8.716;2024-01-30T10:23:38;100453.88;;;10.36;54.01
25610;BME280;13479;49.044;8.716;2024-01-30T10:26:04;100483.09;;;10.36;53.43
25610;BME280;13479;49.044;8.716;2024-01-30T10:28:29;100497.53;;;10.46;53.55
25610;BME280;13479;49.044;8.716;2024-01-30T10:31:02;100507.94;;;10.64;52.59
25610;BME280;13479;49.044;8.716;2024-01-30T10:33:29;100500.19;;;10.46;53.05
25610;BME280;13479;49.044;8.716;2024-01-30T10:36:01;100503.56;;;10.34;53.07
25610;BME280;13479;49.044;8.716;2024-01-30T10:38:31;100508.53;;;10.40;52.67
25610;BME280;13479;49.044;8.716;2024-01-30T10:40:58;100487.75;;;10.32;53.15
25610;BME280;13479;49.044;8.716;2024-01-30T10:43:31;100502.91;;;10.30;52.62
25610;BME280;13479;49.044;8.716;2024-01-30T10:46:10;100496.06;;;10.26;53.27
25610;BME280;13479;49.044;8.716;2024-01-30T10:48:42;100474.03;;;10.40;53.45
25610;BME280;13479;49.044;8.716;2024-01-30T10:51:09;100495.06;;;10.58;52.96
25610;BME280;13479;49.044;8.716;2024-01-30T10:53:36;100522.28;;;10.76;52.18
25610;BME280;13479;49.044;8.716;2024-01-30T10:56:03;100518.66;;;10.91;51.91
25610;BME280;13479;49.044;8.716;2024-01-30T10:58:29;100524.03;;;11.04;51.01
25610;BME280;13479;49.044;8.716;2024-01-30T11:00:55;100531.34;;;11.01;51.09
25610;BME280;13479;49.044;8.716;2024-01-30T11:03:20;100533.06;;;10.87;51.26
25610;BME280;13479;49.044;8.716;2024-01-30T11:05:49;100507.16;;;10.76;52.02
25610;BME280;13479;49.044;8.716;2024-01-30T11:08:23;100481.38;;;10.78;52.72
25610;BME280;13479;49.044;8.716;2024-01-30T11:10:49;100468.81;;;10.95;52.57
25610;BME280;13479;49.044;8.716;2024-01-30T11:13:15;100468.56;;;11.12;52.39
25610;BME280;13479;49.044;8.716;2024-01-30T11:15:41;100504.88;;;11.54;51.01
25610;BME280;13479;49.044;8.716;2024-01-30T11:18:06;100518.28;;;11.65;51.21
25610;BME280;13479;49.044;8.716;2024-01-30T11:20:31;100527.09;;;11.93;50.06
25610;BME280;13479;49.044;8.716;2024-01-30T11:22:58;100532.69;;;12.16;48.82
25610;BME280;13479;49.044;8.716;2024-01-30T11:25:25;100531.41;;;12.09;49.07
25610;BME280;13479;49.044;8.716;2024-01-30T11:27:52;100533.50;;;12.16;48.55
25610;BME280;13479;49.044;8.716;2024-01-30T11:33:01;100519.47;;;12.27;48.00
25610;BME280;13479;49.044;8.716;2024-01-30T11:35:30;100520.31;;;12.15;48.27
25610;BME280;13479;49.044;8.716;2024-01-30T11:37:57;100517.78;;;12.13;48.64
25610;BME280;13479;49.044;8.716;2024-01-30T11:40:23;100478.97;;;12.22;49.30
25610;BME280;13479;49.044;8.716;2024-01-30T11:42:51;100486.44;;;12.43;48.76
25610;BME280;13479;49.044;8.716;2024-01-30T11:45:17;100488.56;;;12.38;49.22
25610;BME280;13479;49.044;8.716;2024-01-30T11:47:42;100505.81;;;12.45;48.23
25610;BME280;13479;49.044;8.716;2024-01-30T11:50:08;100498.28;;;12.39;48.71
25610;BME280;13479;49.044;8.716;2024-01-30T11:52:36;100479.84;;;12.35;49.25
25610;BME280;13479;49.044;8.716;2024-01-30T11:55:02;100488.16;;;12.44;48.94
25610;BME280;13479;49.044;8.716;2024-01-30T11:57:27;100504.13;;;12.44;48.40
25610;BME280;13479;49.044;8.716;2024-01-30T11:59:53;100497.53;;;12.36;48.61
25610;BME280;13479;49.044;8.716;2024-01-30T12:02:18;100486.34;;;12.31;48.88
25610;BME280;13479;49.044;8.716;2024-01-30T12:04:44;100474.84;;;12.44;48.95
25610;BME280;13479;49.044;8.716;2024-01-30T12:07:09;100490.47;;;12.61;48.37
25610;BME280;13479;49.044;8.716;2024-01-30T12:09:34;100487.06;;;12.59;48.18
25610;BME280;13479;49.044;8.716;2024-01-30T12:12:00;100483.13;;;12.52;48.59
25610;BME280;13479;49.044;8.716;2024-01-30T12:14:26;100462.25;;;12.46;49.45
25610;BME280;13479;49.044;8.716;2024-01-30T12:16:51;100436.97;;;12.64;49.62
25610;BME280;13479;49.044;8.716;2024-01-30T12:19:24;100465.88;;;12.82;48.45
25610;BME280;13479;49.044;8.716;2024-01-30T12:21:59;100472.09;;;12.82;48.54
25610;BME280;13479;49.044;8.716;2024-01-30T12:24:25;100449.72;;;12.72;49.51
25610;BME280;13479;49.044;8.716;2024-01-30T12:26:51;100472.47;;;12.89;48.33
25610;BME280;13479;49.044;8.716;2024-01-30T12:29:17;100467.66;;;12.94;48.14
25610;BME280;13479;49.044;8.716;2024-01-30T12:31:42;100463.56;;;12.77;48.58
25610;BME280;13479;49.044;8.716;2024-01-30T12:34:09;100439.97;;;12.60;49.13
25610;BME280;13479;49.044;8.716;2024-01-30T12:36:34;100422.81;;;12.51;49.58
25610;BME280;13479;49.044;8.716;2024-01-30T12:39:01;100402.84;;;12.32;50.21
25610;BME280;13479;49.044;8.716;2024-01-30T12:41:27;100381.66;;;12.18;51.21
25610;BME280;13479;49.044;8.716;2024-01-30T12:43:54;100369.63;;;11.99;51.84
25610;BME280;13479;49.044;8.716;2024-01-30T12:46:19;100361.03;;;12.09;52.58
25610;BME280;13479;49.044;8.716;2024-01-30T12:48:45;100354.84;;;12.21;52.17
25610;BME280;13479;49.044;8.716;2024-01-30T12:51:10;100357.66;;;12.44;51.60
25610;BME280;13479;49.044;8.716;2024-01-30T12:53:35;100378.75;;;12.71;50.77
25610;BME280;13479;49.044;8.716;2024-01-30T12:56:01;100408.56;;;12.76;50.35
25610;BME280;13479;49.044;8.716;2024-01-30T12:58:26;100419.75;;;12.81;50.50
25610;BME280;13479;49.044;8.716;2024-01-30T13:00:52;100422.81;;;12.88;49.98
25610;BME280;13479;49.044;8.716;2024-01-30T13:03:18;100442.16;;;13.03;49.46
25610;BME280;13479;49.044;8.716;2024-01-30T13:05:43;100443.06;;;13.39;49.26
25610;BME280;13479;49.044;8.716;2024-01-30T13:08:08;100439.56;;;13.50;49.58
25610;BME280;13479;49.044;8.716;2024-01-30T13:10:34;100464.75;;;13.70;47.58
25610;BME280;13479;49.044;8.716;2024-01-30T13:12:59;100464.13;;;13.67;47.94
25610;BME280;13479;49.044;8.716;2024-01-30T13:15:24;100463.44;;;13.76;47.91
25610;BME280;13479;49.044;8.716;2024-01-30T13:17:50;100460.28;;;13.82;47.59
25610;BME280;13479;49.044;8.716;2024-01-30T13:20:15;100452.03;;;13.74;48.01
25610;BME280;13479;49.044;8.716;2024-01-30T13:22:44;100445.97;;;13.83;48.04
25610;BME280;13479;49.044;8.716;2024-01-30T13:25:09;100428.63;;;13.89;48.78
25610;BME280;13479;49.044;8.716;2024-01-30T13:27:36;100419.78;;;14.00;48.97
25610;BME280;13479;49.044;8.716;2024-01-30T13:30:01;100436.78;;;14.10;47.75
25610;BME280;13479;49.044;8.716;2024-01-30T13:32:27;100452.81;;;14.10;47.01
25610;BME280;13479;49.044;8.716;2024-01-30T13:34:52;100459.59;;;14.26;47.07
25610;BME280;13479;49.044;8.716;2024-01-30T13:37:17;100463.50;;;14.21;47.04
25610;BME280;13479;49.044;8.716;2024-01-30T13:39:43;100458.75;;;14.14;47.07
25610;BME280;13479;49.044;8.716;2024-01-30T13:42:08;100443.91;;;13.98;47.61
25610;BME280;13479;49.044;8.716;2024-01-30T13:44:35;100462.41;;;14.13;47.03
25610;BME280;13479;49.044;8.716;2024-01-30T13:47:01;100460.53;;;14.02;47.40
25610;BME280;13479;49.044;8.716;2024-01-30T13:49:26;100446.50;;;14.00;47.18
25610;BME280;13479;49.044;8.716;2024-01-30T13:51:52;100455.94;;;14.04;47.33
25610;BME280;13479;49.044;8.716;2024-01-30T13:54:17;100463.13;;;14.15;47.31
25610;BME280;13479;49.044;8.716;2024-01-30T13:56:43;100466.63;;;14.15;47.33
25610;BME280;13479;49.044;8.716;2024-01-30T13:59:08;100466.16;;;14.21;47.68
25610;BME280;13479;49.044;8.716;2024-01-30T14:01:33;100466.03;;;14.23;47.25
25610;BME280;13479;49.044;8.716;2024-01-30T14:03:59;100458.25;;;14.09;48.14
25610;BME280;13479;49.044;8.716;2024-01-30T14:06:24;100468.91;;;13.97;47.54
25610;BME280;13479;49.044;8.716;2024-01-30T14:08:49;100461.63;;;13.88;47.93
25610;BME280;13479;49.044;8.716;2024-01-30T14:11:15;100443.22;;;13.49;48.51
25610;BME280;13479;49.044;8.716;2024-01-30T14:13:40;100416.41;;;13.39;49.04
25610;BME280;13479;49.044;8.716;2024-01-30T14:16:06;100403.03;;;13.15;49.87
25610;BME280;13479;49.044;8.716;2024-01-30T14:18:31;100401.81;;;13.08;50.04
25610;BME280;13479;49.044;8.716;2024-01-30T14:20:57;100381.19;;;12.98;50.51
25610;BME280;13479;49.044;8.716;2024-01-30T14:23:22;100385.31;;;12.78;51.09
25610;BME280;13479;49.044;8.716;2024-01-30T14:25:47;100381.06;;;12.76;51.77
25610;BME280;13479;49.044;8.716;2024-01-30T14:28:13;100384.22;;;12.81;51.62
25610;BME280;13479;49.044;8.716;2024-01-30T14:30:38;100379.44;;;12.86;51.77
25610;BME280;13479;49.044;8.716;2024-01-30T14:33:03;100382.72;;;12.90;51.55
25610;BME280;13479;49.044;8.716;2024-01-30T14:35:29;100377.38;;;12.90;51.54
25610;BME280;13479;49.044;8.716;2024-01-30T14:37:54;100375.81;;;12.87;52.06
25610;BME280;13479;49.044;8.716;2024-01-30T14:40:20;100377.59;;;12.87;51.89
25610;BME280;13479;49.044;8.716;2024-01-30T14:42:45;100381.97;;;12.88;52.08
25610;BME280;13479;49.044;8.716;2024-01-30T14:45:11;100383.06;;;12.85;52.16
25610;BME280;13479;49.044;8.716;2024-01-30T14:47:37;100385.19;;;12.80;52.27
25610;BME280;13479;49.044;8.716;2024-01-30T14:50:03;100377.47;;;12.64;52.46
25610;BME280;13479;49.044;8.716;2024-01-30T14:52:29;100373.22;;;12.61;52.41
25610;BME280;13479;49.044;8.716;2024-01-30T14:54:54;100372.50;;;12.59;52.48
25610;BME280;13479;49.044;8.716;2024-01-30T14:57:20;100374.88;;;12.51;53.06
25610;BME280;13479;49.044;8.716;2024-01-30T14:59:45;100379.91;;;12.43;53.42
25610;BME280;13479;49.044;8.716;2024-01-30T15:02:10;100374.69;;;12.41;53.33
25610;BME280;13479;49.044;8.716;2024-01-30T15:04:36;100371.19;;;12.41;53.41
25610;BME280;13479;49.044;8.716;2024-01-30T15:07:01;100377.97;;;12.45;53.23
25610;BME280;13479;49.044;8.716;2024-01-30T15:09:27;100383.53;;;12.42;53.56
25610;BME280;13479;49.044;8.716;2024-01-30T15:11:52;100386.63;;;12.35;53.79
25610;BME280;13479;49.044;8.716;2024-01-30T15:14:18;100382.03;;;12.38;53.77
25610;BME280;13479;49.044;8.716;2024-01-30T15:16:44;100386.34;;;12.27;53.77
25610;BME280;13479;49.044;8.716;2024-01-30T15:19:09;100380.59;;;12.20;54.35
25610;BME280;13479;49.044;8.716;2024-01-30T15:21:34;100386.03;;;12.19;54.25
25610;BME280;13479;49.044;8.716;2024-01-30T15:24:01;100383.78;;;12.13;54.29
25610;BME280;13479;49.044;8.716;2024-01-30T15:26:27;100398.06;;;12.12;54.62
25610;BME280;13479;49.044;8.716;2024-01-30T15:28:52;100395.72;;;12.07;54.43
25610;BME280;13479;49.044;8.716;2024-01-30T15:31:17;100390.53;;;12.05;54.82
25610;BME280;13479;49.044;8.716;2024-01-30T15:33:43;100397.75;;;12.03;54.87
25610;BME280;13479;49.044;8.716;2024-01-30T15:36:08;100393.59;;;11.99;55.01
25610;BME280;13479;49.044;8.716;2024-01-30T15:38:40;100395.50;;;11.97;55.27
25610;BME280;13479;49.044;8.716;2024-01-30T15:41:05;100388.69;;;11.93;55.28
25610;BME280;13479;49.044;8.716;2024-01-30T15:43:31;100396.88;;;11.90;55.48
25610;BME280;13479;49.044;8.716;2024-01-30T15:45:58;100392.31;;;11.79;55.22
25610;BME280;13479;49.044;8.716;2024-01-30T15:48:24;100395.94;;;11.78;55.78
25610;BME280;13479;49.044;8.716;2024-01-30T15:50:49;100390.94;;;11.73;55.45
25610;BME280;13479;49.044;8.716;2024-01-30T15:53:14;100392.09;;;11.69;55.76
25610;BME280;13479;49.044;8.716;2024-01-30T15:55:40;100390.81;;;11.62;56.12
25610;BME280;13479;49.044;8.716;2024-01-30T15:58:05;100397.09;;;11.61;56.12
25610;BME280;13479;49.044;8.716;2024-01-30T16:00:32;100393.50;;;11.62;56.22
25610;BME280;13479;49.044;8.716;2024-01-30T16:02:57;100387.84;;;11.54;56.53
25610;BME280;13479;49.044;8.716;2024-01-30T16:05:23;100395.06;;;11.52;56.46
25610;BME280;13479;49.044;8.716;2024-01-30T16:07:48;100390.38;;;11.42;56.99
25610;BME280;13479;49.044;8.716;2024-01-30T16:10:14;100399.84;;;11.34;57.27
25610;BME280;13479;49.044;8.716;2024-01-30T16:12:42;100397.88;;;11.23;57.46
25610;BME280;13479;49.044;8.716;2024-01-30T16:15:10;100404.38;;;11.19;57.70
25610;BME280;13479;49.044;8.716;2024-01-30T16:17:36;100405.63;;;11.13;57.82
25610;BME280;13479;49.044;8.716;2024-01-30T16:20:01;100407.63;;;11.09;58.08
25610;BME280;13479;49.044;8.716;2024-01-30T16:22:27;100417.53;;;11.07;57.99
25610;BME280;13479;49.044;8.716;2024-01-30T16:24:52;100422.16;;;11.04;58.47
25610;BME280;13479;49.044;8.716;2024-01-30T16:27:17;100418.09;;;10.98;58.28
25610;BME280;13479;49.044;8.716;2024-01-30T16:29:42;100428.09;;;10.94;58.54
25610;BME280;13479;49.044;8.716;2024-01-30T16:32:08;100416.94;;;10.89;58.95
25610;BME280;13479;49.044;8.716;2024-01-30T16:34:33;100414.75;;;10.81;59.13
25610;BME280;13479;49.044;8.716;2024-01-30T16:36:58;100427.41;;;10.78;59.22
25610;BME280;13479;49.044;8.716;2024-01-30T16:39:24;100416.31;;;10.71;59.52
25610;BME280;13479;49.044;8.716;2024-01-30T16:41:49;100427.22;;;10.66;60.04
25610;BME280;13479;49.044;8.716;2024-01-30T16:44:14;100418.63;;;10.63;60.21
25610;BME280;13479;49.044;8.716;2024-01-30T16:46:39;100427.31;;;10.65;60.15
25610;BME280;13479;49.044;8.716;2024-01-30T16:49:05;100432.63;;;10.65;60.49
25610;BME280;13479;49.044;8.716;2024-01-30T16:51:30;100441.09;;;10.57;60.42
25610;BME280;13479;49.044;8.716;2024-01-30T16:53:56;100437.78;;;10.54;60.78
25610;BME280;13479;49.044;8.716;2024-01-30T16:56:21;100450.22;;;10.53;61.00
25610;BME280;13479;49.044;8.716;2024-01-30T16:58:47;100445.66;;;10.41;60.84
25610;BME280;13479;49.044;8.716;2024-01-30T17:01:12;100452.66;;;10.27;61.25
25610;BME280;13479;49.044;8.716;2024-01-30T17:03:37;100448.56;;;10.22;61.41
25610;BME280;13479;49.044;8.716;2024-01-30T17:06:08;100456.94;;;10.15;61.12
25610;BME280;13479;49.044;8.716;2024-01-30T17:08:35;100453.91;;;10.07;61.55
25610;BME280;13479;49.044;8.716;2024-01-30T17:11:00;100459.56;;;10.01;61.90
25610;BME280;13479;49.044;8.716;2024-01-30T17:13:25;100456.25;;;9.97;61.88
25610;BME280;13479;49.044;8.716;2024-01-30T17:15:50;100453.59;;;9.97;62.25
25610;BME280;13479;49.044;8.716;2024-01-30T17:18:16;100457.84;;;10.00;62.35
25610;BME280;13479;49.044;8.716;2024-01-30T17:20:43;100453.59;;;9.97;62.36
25610;BME280;13479;49.044;8.716;2024-01-30T17:23:08;100451.59;;;10.01;62.76
25610;BME280;13479;49.044;8.716;2024-01-30T17:25:36;100456.34;;;9.96;62.63
25610;BME280;13479;49.044;8.716;2024-01-30T17:28:01;100447.41;;;9.97;63.18
25610;BME280;13479;49.044;8.716;2024-01-30T17:30:27;100453.94;;;9.91;63.47
25610;BME280;13479;49.044;8.716;2024-01-30T17:32:53;100450.47;;;9.91;64.07
25610;BME280;13479;49.044;8.716;2024-01-30T17:35:18;100453.50;;;9.99;64.35
25610;BME280;13479;49.044;8.716;2024-01-30T17:37:43;100455.97;;;10.02;64.41
25610;BME280;13479;49.044;8.716;2024-01-30T17:40:09;100463.56;;;9.94;64.54
25610;BME280;13479;49.044;8.716;2024-01-30T17:42:35;100470.63;;;9.93;64.46
25610;BME280;13479;49.044;8.716;2024-01-30T17:45:03;100471.13;;;10.00;64.52
25610;BME280;13479;49.044;8.716;2024-01-30T17:47:29;100477.19;;;10.02;64.46
25610;BME280;13479;49.044;8.716;2024-01-30T17:49:54;100475.31;;;10.04;64.36